createdAt,value
2022-11-06T00:02:20.941Z,44.10
2022-11-06T00:04:48.360Z,45.60
2022-11-06T00:07:14.979Z,45.45
2022-11-06T00:09:41.623Z,44.47
2022-11-06T00:12:08.387Z,48.85
2022-11-06T00:14:35.422Z,46.55
2022-11-06T00:17:02.168Z,48.30
2022-11-06T00:19:28.793Z,45.08
2022-11-06T00:21:55.405Z,43.65
2022-11-06T00:24:22.082Z,43.63
2022-11-06T00:26:54.234Z,47.13
2022-11-06T00:29:21.284Z,49.10
2022-11-06T00:31:50.083Z,51.10
2022-11-06T00:34:16.866Z,49.40
2022-11-06T00:36:43.929Z,41.28
2022-11-06T00:39:11.813Z,42.45
2022-11-06T00:41:38.792Z,47.58
2022-11-06T00:44:05.621Z,46.80
2022-11-06T00:46:32.880Z,41.47
2022-11-06T00:48:59.497Z,43.03
2022-11-06T00:51:32.345Z,54.28
2022-11-06T00:54:00.796Z,44.72
2022-11-06T00:56:28.121Z,43.80
2022-11-06T00:58:59.109Z,51.47
2022-11-06T01:01:30.836Z,48.75
2022-11-06T01:04:10.987Z,45.95
2022-11-06T01:06:40.642Z,45.55
2022-11-06T01:09:08.632Z,47.53
2022-11-06T01:12:06.685Z,43.50
2022-11-06T01:14:26.447Z,56.38
2022-11-06T01:16:53.080Z,56.17
2022-11-06T01:19:21.454Z,47.38
2022-11-06T01:21:50.550Z,43.22
2022-11-06T01:24:21.520Z,48.83
2022-11-06T01:27:05.267Z,55.40
2022-11-06T01:29:36.169Z,51.30
2022-11-06T01:32:02.831Z,46.05
2022-11-06T01:34:29.803Z,52.80
2022-11-06T01:36:56.459Z,48.92
2022-11-06T01:39:23.128Z,39.63
2022-11-06T01:41:52.561Z,47.05
2022-11-06T01:44:40.894Z,49.40
2022-11-06T01:47:24.613Z,46.92
2022-11-06T01:49:55.454Z,46.25
2022-11-06T01:52:23.836Z,43.15
2022-11-06T01:54:59.673Z,51.22
2022-11-06T01:57:26.403Z,45.30
2022-11-06T01:59:55.025Z,54.10
2022-11-06T02:02:22.482Z,46.05
2022-11-06T02:04:50.145Z,50.78
2022-11-06T02:07:19.038Z,44.88
2022-11-06T02:09:46.260Z,42.25
2022-11-06T02:12:36.943Z,43.38
2022-11-06T02:15:25.599Z,44.22
2022-11-06T02:18:07.158Z,47.33
2022-11-06T02:20:41.871Z,44.37
2022-11-06T02:23:57.832Z,43.53
2022-11-06T02:26:35.713Z,42.63
2022-11-06T02:29:15.408Z,42.75
2022-11-06T02:31:45.402Z,45.65
2022-11-06T02:34:15.723Z,40.30
2022-11-06T02:37:00.358Z,33.50
2022-11-06T02:39:29.356Z,30.63
2022-11-06T02:41:58.687Z,28.80
2022-11-06T02:44:28.047Z,24.98
2022-11-06T02:47:00.026Z,21.92
2022-11-06T02:49:33.125Z,26.58
2022-11-06T02:52:06.843Z,35.70
2022-11-06T02:54:39.049Z,18.52
2022-11-06T02:59:47.742Z,20.13
2022-11-06T03:02:25.476Z,15.93
2022-11-06T03:04:59.517Z,15.90
2022-11-06T03:07:38.059Z,19.13
2022-11-06T03:10:06.929Z,22.30
2022-11-06T03:13:08.016Z,16.00
2022-11-06T03:16:04.887Z,23.65
2022-11-06T03:18:43.531Z,13.73
2022-11-06T03:21:24.404Z,25.00
2022-11-06T03:23:57.233Z,15.02
2022-11-06T03:26:33.516Z,18.73
2022-11-06T03:29:23.680Z,12.75
2022-11-06T03:32:01.935Z,12.68
2022-11-06T03:34:59.638Z,19.42
2022-11-06T03:37:35.980Z,18.23
2022-11-06T03:40:06.304Z,21.30
2022-11-06T03:42:33.247Z,20.63
2022-11-06T03:45:06.579Z,21.48
2022-11-06T03:47:49.090Z,18.00
2022-11-06T03:50:24.097Z,21.73
2022-11-06T03:53:00.863Z,16.40
2022-11-06T03:55:36.446Z,19.35
2022-11-06T03:58:11.414Z,24.88
2022-11-06T04:00:41.940Z,16.00
2022-11-06T04:03:21.175Z,18.38
2022-11-06T04:05:56.725Z,21.52
2022-11-06T04:08:45.363Z,14.77
2022-11-06T04:11:36.664Z,23.58
2022-11-06T04:14:07.251Z,21.27
2022-11-06T04:16:41.245Z,22.98
2022-11-06T04:19:25.920Z,19.77
2022-11-06T04:22:10.643Z,30.00
2022-11-06T04:25:05.357Z,16.25
2022-11-06T04:27:34.996Z,18.33
2022-11-06T04:30:14.657Z,19.33
2022-11-06T04:33:00.044Z,16.70
2022-11-06T04:35:42.546Z,21.02
2022-11-06T04:38:27.537Z,22.33
2022-11-06T04:41:35.162Z,19.50
2022-11-06T04:44:07.853Z,20.05
2022-11-06T04:46:40.897Z,11.60
2022-11-06T04:49:09.043Z,15.55
2022-11-06T04:51:39.377Z,19.15
2022-11-06T04:54:09.207Z,12.95
2022-11-06T04:56:40.142Z,18.30
2022-11-06T04:59:15.717Z,17.30
2022-11-06T05:01:42.462Z,18.77
2022-11-06T05:04:10.821Z,10.57
2022-11-06T05:06:37.643Z,14.93
2022-11-06T05:09:04.462Z,20.90
2022-11-06T05:11:31.271Z,17.77
2022-11-06T05:13:57.985Z,22.42
2022-11-06T05:16:24.699Z,17.15
2022-11-06T05:18:51.487Z,22.67
2022-11-06T05:21:36.652Z,17.40
2022-11-06T05:24:03.769Z,21.23
2022-11-06T05:26:30.739Z,21.35
2022-11-06T05:28:57.758Z,14.45
2022-11-06T05:31:25.279Z,14.80
2022-11-06T05:33:51.858Z,12.85
2022-11-06T05:36:18.602Z,19.50
2022-11-06T05:38:45.213Z,18.17
2022-11-06T05:41:12.392Z,22.25
2022-11-06T05:43:39.473Z,20.60
2022-11-06T05:46:14.959Z,14.10
2022-11-06T05:48:50.909Z,20.00
2022-11-06T05:51:17.966Z,16.20
2022-11-06T05:53:44.661Z,16.35
2022-11-06T05:56:11.580Z,24.63
2022-11-06T05:58:38.163Z,20.67
2022-11-06T06:01:05.298Z,14.55
2022-11-06T06:03:32.139Z,23.52
2022-11-06T06:05:58.894Z,19.33
2022-11-06T06:08:25.693Z,26.58
2022-11-06T06:10:52.314Z,17.35
2022-11-06T06:13:19.122Z,17.52
2022-11-06T06:15:46.348Z,18.38
2022-11-06T06:18:13.568Z,18.23
2022-11-06T06:20:40.582Z,23.42
2022-11-06T06:23:09.562Z,24.27
2022-11-06T06:25:36.593Z,22.60
2022-11-06T06:28:03.532Z,20.52
2022-11-06T06:30:30.782Z,30.15
2022-11-06T06:32:57.381Z,18.42
2022-11-06T06:35:23.989Z,20.95
2022-11-06T06:37:52.791Z,23.23
2022-11-06T06:40:20.080Z,23.25
2022-11-06T06:42:46.723Z,22.30
2022-11-06T06:45:13.601Z,22.52
2022-11-06T06:47:40.336Z,23.88
2022-11-06T06:55:59.489Z,24.65
2022-11-06T06:58:27.257Z,20.92
2022-11-06T07:00:54.088Z,24.30
2022-11-06T07:03:21.040Z,26.30
2022-11-06T07:05:47.704Z,29.05
2022-11-06T07:08:14.628Z,21.88
2022-11-06T07:10:41.798Z,25.52
2022-11-06T07:13:08.428Z,19.35
2022-11-06T07:15:35.436Z,22.88
2022-11-06T07:18:03.583Z,17.27
2022-11-06T07:20:30.724Z,19.05
2022-11-06T07:22:58.328Z,32.65
2022-11-06T07:25:26.011Z,19.55
2022-11-06T07:27:53.017Z,23.63
2022-11-06T07:30:19.839Z,21.92
2022-11-06T07:32:46.554Z,25.35
2022-11-06T07:35:13.259Z,23.45
2022-11-06T07:37:39.879Z,20.77
2022-11-06T07:40:07.625Z,17.40
2022-11-06T07:42:38.257Z,32.22
2022-11-06T07:45:08.420Z,30.38
2022-11-06T07:47:35.572Z,23.20
2022-11-06T07:50:02.465Z,20.13
2022-11-06T07:52:29.063Z,29.65
2022-11-06T07:54:56.186Z,23.70
2022-11-06T07:57:22.997Z,26.80
2022-11-06T07:59:49.818Z,23.92
2022-11-06T08:02:17.704Z,27.08
2022-11-06T08:04:44.654Z,25.50
2022-11-06T08:07:11.226Z,27.17
2022-11-06T08:09:37.864Z,27.17
2022-11-06T08:12:04.930Z,20.40
2022-11-06T08:14:31.645Z,29.48
2022-11-06T08:16:58.657Z,30.33
2022-11-06T08:19:26.110Z,25.65
2022-11-06T08:21:53.174Z,27.40
2022-11-06T08:24:22.052Z,21.25
2022-11-06T08:26:49.168Z,33.45
2022-11-06T08:29:16.263Z,28.17
2022-11-06T08:31:43.279Z,29.27
2022-11-06T08:34:10.589Z,25.98
2022-11-06T08:37:27.116Z,30.05
2022-11-06T08:39:53.941Z,21.45
2022-11-06T08:42:21.001Z,24.75
2022-11-06T08:44:48.184Z,36.15
2022-11-06T08:47:15.108Z,23.92
2022-11-06T08:49:41.969Z,23.13
2022-11-06T08:52:08.862Z,29.55
2022-11-06T08:54:38.528Z,20.98
2022-11-06T08:57:05.416Z,21.48
2022-11-06T08:59:33.281Z,20.92
2022-11-06T09:02:01.173Z,34.78
2022-11-06T09:04:28.088Z,26.55
2022-11-06T09:06:56.946Z,46.42
2022-11-06T09:09:24.266Z,51.08
2022-11-06T09:11:51.095Z,32.78
2022-11-06T09:14:18.339Z,23.65
2022-11-06T09:16:45.105Z,32.15
2022-11-06T09:19:12.022Z,25.88
2022-11-06T09:21:40.902Z,23.85
2022-11-06T09:24:07.729Z,22.95
2022-11-06T09:26:35.421Z,28.00
2022-11-06T09:29:02.265Z,30.45
2022-11-06T09:31:29.103Z,22.90
2022-11-06T09:33:56.211Z,23.73
2022-11-06T09:36:23.445Z,22.80
2022-11-06T09:38:50.311Z,25.55
2022-11-06T09:41:37.935Z,19.83
2022-11-06T09:44:41.175Z,22.85
2022-11-06T09:47:19.360Z,19.00
2022-11-06T09:49:52.030Z,20.08
2022-11-06T09:52:44.870Z,19.45
2022-11-06T09:55:25.453Z,23.95
2022-11-06T09:58:00.090Z,26.55
2022-11-06T10:00:29.791Z,19.00
2022-11-06T10:03:08.752Z,18.13
2022-11-06T10:05:38.412Z,17.40
2022-11-06T10:08:20.290Z,24.13
2022-11-06T10:11:24.434Z,20.08
2022-11-06T10:14:20.810Z,20.45
2022-11-06T10:17:01.638Z,25.17
2022-11-06T10:19:45.712Z,25.75
2022-11-06T10:22:17.979Z,25.90
2022-11-06T10:27:20.025Z,31.98
2022-11-06T10:30:04.714Z,25.13
2022-11-06T10:32:57.918Z,20.52
2022-11-06T10:35:47.058Z,20.35
2022-11-06T10:38:15.553Z,20.23
2022-11-06T10:40:46.478Z,20.77
2022-11-06T10:43:19.018Z,20.15
2022-11-06T10:45:50.677Z,21.10
2022-11-06T10:48:27.387Z,21.75
2022-11-06T10:51:21.033Z,21.02
2022-11-06T10:54:00.877Z,20.50
2022-11-06T10:56:59.615Z,17.95
2022-11-06T10:59:26.217Z,17.70
2022-11-06T11:01:54.006Z,20.23
2022-11-06T11:04:20.901Z,27.85
2022-11-06T11:06:47.655Z,22.33
2022-11-06T11:09:34.459Z,20.35
2022-11-06T11:12:01.347Z,17.33
2022-11-06T11:14:30.530Z,22.02
2022-11-06T11:17:01.976Z,14.32
2022-11-06T11:19:41.601Z,10.65
2022-11-06T11:22:21.626Z,16.85
2022-11-06T11:25:06.076Z,11.50
2022-11-06T11:27:38.329Z,12.98
2022-11-06T11:30:06.333Z,11.18
2022-11-06T11:32:33.640Z,14.80
2022-11-06T11:35:01.301Z,19.15
2022-11-06T11:37:31.065Z,29.27
2022-11-06T11:40:23.566Z,20.65
2022-11-06T11:45:19.498Z,18.30
2022-11-06T11:47:48.658Z,20.20
2022-11-06T11:50:20.292Z,28.33
2022-11-06T11:52:49.417Z,24.15
2022-11-06T11:55:18.587Z,19.90
2022-11-06T11:57:48.967Z,19.08
2022-11-06T12:00:20.913Z,13.88
2022-11-06T12:02:52.087Z,19.13
2022-11-06T12:05:24.198Z,21.40
2022-11-06T12:07:56.366Z,17.70
2022-11-06T12:13:05.271Z,14.65
2022-11-06T12:15:41.027Z,11.70
2022-11-06T12:18:15.796Z,13.90
2022-11-06T12:21:04.297Z,10.63
2022-11-06T12:23:53.809Z,12.32
2022-11-06T12:26:25.393Z,11.18
2022-11-06T12:29:02.010Z,12.35
2022-11-06T12:31:41.559Z,15.65
2022-11-06T12:34:17.851Z,14.32
2022-11-06T12:36:59.095Z,10.60
2022-11-06T12:39:33.554Z,10.73
2022-11-06T12:42:04.465Z,12.25
2022-11-06T12:44:31.179Z,10.15
2022-11-06T12:47:05.408Z,13.80
2022-11-06T12:49:44.574Z,9.43
2022-11-06T12:52:39.394Z,13.02
2022-11-06T12:55:32.041Z,13.90
2022-11-06T12:58:20.265Z,13.00
2022-11-06T13:01:08.302Z,14.98
2022-11-06T13:03:44.013Z,20.05
2022-11-06T13:06:24.518Z,13.18
2022-11-06T13:09:06.097Z,15.15
2022-11-06T13:12:17.602Z,13.70
2022-11-06T13:14:47.589Z,15.82
2022-11-06T13:17:26.731Z,14.10
2022-11-06T13:20:03.758Z,11.07
2022-11-06T13:22:42.561Z,10.60
2022-11-06T13:25:45.811Z,19.25
2022-11-06T13:28:26.805Z,11.35
2022-11-06T13:30:54.241Z,10.23
2022-11-06T13:33:28.656Z,13.32
2022-11-06T13:35:55.949Z,12.90
2022-11-06T13:38:28.637Z,14.35
2022-11-06T13:41:11.700Z,8.70
2022-11-06T13:43:54.990Z,11.75
2022-11-06T13:46:52.865Z,18.58
2022-11-06T13:49:43.491Z,15.80
2022-11-06T13:52:09.969Z,9.50
2022-11-06T13:55:03.359Z,10.30
2022-11-06T13:58:01.031Z,12.10
2022-11-06T14:00:45.818Z,8.68
2022-11-06T14:03:37.525Z,13.32
2022-11-06T14:06:25.130Z,14.70
2022-11-06T14:08:56.730Z,13.32
2022-11-06T14:11:33.106Z,11.35
2022-11-06T14:14:06.211Z,11.63
2022-11-06T14:16:41.120Z,14.07
2022-11-06T14:19:23.376Z,11.10
2022-11-06T14:21:56.605Z,15.75
2022-11-06T14:24:32.422Z,11.75
2022-11-06T14:27:06.611Z,13.88
2022-11-06T14:29:33.152Z,12.77
2022-11-06T14:32:06.512Z,13.18
2022-11-06T14:34:34.467Z,12.40
2022-11-06T14:37:19.741Z,15.98
2022-11-06T14:39:55.518Z,12.30
2022-11-06T14:42:33.820Z,15.63
2022-11-06T14:45:10.080Z,12.20
2022-11-06T14:47:51.372Z,12.90
2022-11-06T14:50:38.198Z,13.00
2022-11-06T14:53:24.341Z,11.35
2022-11-06T14:55:59.168Z,12.98
2022-11-06T14:58:31.307Z,14.10
2022-11-06T15:03:37.570Z,18.20
2022-11-06T15:06:34.685Z,8.93
2022-11-06T15:09:16.095Z,8.75
2022-11-06T15:11:47.646Z,9.07
2022-11-06T15:14:17.538Z,13.73
2022-11-06T15:16:55.896Z,10.27
2022-11-06T15:19:28.287Z,14.80
2022-11-06T15:22:04.481Z,11.07
2022-11-06T15:24:56.913Z,14.27
2022-11-06T15:27:42.968Z,12.32
2022-11-06T15:30:16.693Z,13.55
2022-11-06T15:32:46.020Z,12.40
2022-11-06T15:35:27.711Z,16.23
2022-11-06T15:38:17.073Z,15.10
2022-11-06T15:40:44.586Z,11.10
2022-11-06T15:43:24.256Z,8.73
2022-11-06T15:46:12.709Z,9.70
2022-11-06T15:48:39.376Z,12.85
2022-11-06T15:51:28.676Z,12.57
2022-11-06T15:53:55.753Z,10.32
2022-11-06T15:56:31.639Z,14.93
2022-11-06T15:59:24.378Z,13.20
2022-11-06T16:01:51.167Z,9.38
2022-11-06T16:04:25.732Z,12.27
2022-11-06T16:06:55.120Z,13.80
2022-11-06T16:09:25.281Z,16.10
2022-11-06T16:11:53.090Z,22.23
2022-11-06T16:14:20.702Z,23.55
2022-11-06T16:16:51.348Z,15.93
2022-11-06T16:19:20.508Z,11.85
2022-11-06T16:22:04.313Z,13.55
2022-11-06T16:24:40.136Z,28.35
2022-11-06T16:27:07.324Z,20.48
2022-11-06T16:29:34.809Z,23.27
2022-11-06T16:32:18.243Z,19.30
2022-11-06T16:34:47.025Z,21.52
2022-11-06T16:37:16.377Z,19.15
2022-11-06T16:39:52.844Z,21.67
2022-11-06T16:42:22.637Z,23.90
2022-11-06T16:45:00.337Z,30.33
2022-11-06T16:47:27.504Z,30.75
2022-11-06T16:49:59.752Z,23.35
2022-11-06T16:55:34.410Z,30.08
2022-11-06T16:58:03.289Z,26.38
2022-11-06T17:00:31.875Z,16.48
2022-11-06T17:03:04.610Z,21.98
2022-11-06T17:05:50.257Z,23.00
2022-11-06T17:08:40.259Z,23.67
2022-11-06T17:11:12.799Z,20.55
2022-11-06T17:13:45.347Z,20.33
2022-11-06T17:16:15.654Z,18.13
2022-11-06T17:18:43.053Z,18.77
2022-11-06T17:21:14.220Z,15.40
2022-11-06T17:23:41.588Z,14.45
2022-11-06T17:26:13.304Z,19.02
2022-11-06T17:28:40.269Z,18.95
2022-11-06T17:31:11.116Z,18.45
2022-11-06T17:33:37.978Z,18.88
2022-11-06T17:36:05.512Z,22.02
2022-11-06T17:38:32.167Z,24.40
2022-11-06T17:40:58.777Z,27.52
2022-11-06T17:43:25.641Z,30.40
2022-11-06T17:45:52.491Z,26.70
2022-11-06T17:48:19.187Z,22.67
2022-11-06T17:51:04.600Z,30.65
2022-11-06T17:53:31.339Z,25.85
2022-11-06T17:55:58.138Z,26.73
2022-11-06T17:58:25.069Z,29.98
2022-11-06T18:00:51.852Z,30.92
2022-11-06T18:03:20.611Z,29.88
2022-11-06T18:05:47.518Z,35.65
2022-11-06T18:08:15.156Z,43.65
2022-11-06T18:10:42.477Z,28.48
2022-11-06T18:13:09.391Z,28.35
2022-11-06T18:15:37.506Z,31.63
2022-11-06T18:18:04.504Z,36.13
2022-11-06T18:20:31.198Z,32.95
2022-11-06T18:22:57.861Z,29.55
2022-11-06T18:25:24.613Z,31.88
2022-11-06T18:27:51.146Z,36.33
2022-11-06T18:30:17.867Z,36.75
2022-11-06T18:32:44.725Z,36.17
2022-11-06T18:35:11.742Z,39.97
2022-11-06T18:37:38.813Z,40.85
2022-11-06T18:40:05.812Z,42.42
2022-11-06T18:42:32.605Z,39.05
2022-11-06T18:44:59.212Z,41.83
2022-11-06T18:47:25.897Z,40.92
2022-11-06T18:49:52.557Z,38.85
2022-11-06T18:52:38.084Z,38.05
2022-11-06T18:55:06.333Z,40.38
2022-11-06T18:57:33.060Z,34.00
2022-11-06T18:59:59.867Z,38.50
2022-11-06T19:02:26.650Z,36.28
2022-11-06T19:04:53.923Z,41.63
2022-11-06T19:07:20.596Z,36.17
2022-11-06T19:09:47.470Z,30.83
2022-11-06T19:12:14.055Z,37.40
2022-11-06T19:14:40.623Z,32.58
2022-11-06T19:17:07.455Z,34.60
2022-11-06T19:19:34.167Z,33.50
2022-11-06T19:22:00.991Z,32.67
2022-11-06T19:24:27.576Z,34.80
2022-11-06T19:26:54.577Z,28.23
2022-11-06T19:29:21.369Z,31.70
2022-11-06T19:31:48.064Z,31.42
2022-11-06T19:34:15.202Z,33.78
2022-11-06T19:36:41.779Z,35.20
2022-11-06T19:39:08.562Z,31.33
2022-11-06T19:41:35.265Z,26.30
2022-11-06T19:44:01.839Z,31.70
2022-11-06T19:46:33.863Z,31.05
2022-11-06T19:49:06.527Z,28.88
2022-11-06T19:51:34.089Z,25.95
2022-11-06T19:54:01.599Z,24.48
2022-11-06T19:56:28.339Z,30.33
2022-11-06T19:58:54.881Z,29.85
2022-11-06T20:01:22.015Z,28.70
2022-11-06T20:03:48.759Z,29.42
2022-11-06T20:06:16.974Z,27.55
2022-11-06T20:08:47.447Z,30.67
2022-11-06T20:11:15.377Z,26.40
2022-11-06T20:13:43.479Z,25.75
2022-11-06T20:16:13.065Z,33.30
2022-11-06T20:18:39.889Z,29.58
2022-11-06T20:21:09.084Z,29.75
2022-11-06T20:23:36.512Z,38.92
2022-11-06T20:26:04.837Z,35.53
2022-11-06T20:28:32.290Z,32.08
2022-11-06T20:30:59.757Z,34.33
2022-11-06T20:33:26.619Z,29.15
2022-11-06T20:35:53.360Z,31.05
2022-11-06T20:38:20.112Z,32.33
2022-11-06T20:40:46.655Z,30.65
2022-11-06T20:43:14.045Z,30.17
2022-11-06T20:45:41.051Z,30.77
2022-11-06T20:48:09.352Z,29.98
2022-11-06T20:50:36.032Z,37.38
2022-11-06T20:53:02.829Z,34.10
2022-11-06T20:55:29.515Z,42.28
2022-11-06T20:57:56.589Z,41.17
2022-11-06T21:00:23.310Z,32.33
2022-11-06T21:02:50.130Z,37.55
2022-11-06T21:05:17.523Z,36.15
2022-11-06T21:07:44.198Z,38.55
2022-11-06T21:10:12.335Z,37.13
2022-11-06T21:12:39.414Z,38.72
2022-11-06T21:15:06.904Z,36.95
2022-11-06T21:17:34.806Z,39.20
2022-11-06T21:20:01.814Z,42.75
2022-11-06T21:22:28.513Z,35.20
2022-11-06T21:24:55.753Z,40.30
2022-11-06T21:27:22.519Z,37.45
2022-11-06T21:29:49.078Z,38.33
2022-11-06T21:32:15.746Z,42.53
2022-11-06T21:34:42.628Z,31.15
2022-11-06T21:37:09.535Z,36.75
2022-11-06T21:39:36.833Z,41.45
2022-11-06T21:42:05.008Z,41.30
2022-11-06T21:44:32.282Z,51.80
2022-11-06T21:46:59.017Z,44.75
2022-11-06T21:49:25.759Z,50.38
2022-11-06T21:51:52.820Z,50.78
2022-11-06T21:54:37.927Z,54.65
2022-11-06T21:57:04.673Z,57.13
2022-11-06T21:59:31.316Z,63.88
2022-11-06T22:01:58.165Z,66.75
2022-11-06T22:04:25.063Z,56.88
2022-11-06T22:06:52.627Z,61.40
2022-11-06T22:09:24.923Z,53.78
2022-11-06T22:11:52.134Z,48.63
2022-11-06T22:14:18.749Z,49.08
2022-11-06T22:16:46.876Z,40.67
2022-11-06T22:19:15.015Z,52.53
2022-11-06T22:21:41.789Z,46.70
2022-11-06T22:24:10.543Z,38.42
2022-11-06T22:26:37.908Z,52.78
2022-11-06T22:29:08.552Z,47.20
2022-11-06T22:31:35.655Z,41.83
2022-11-06T22:34:02.960Z,47.05
2022-11-06T22:36:29.701Z,43.65
2022-11-06T22:38:57.712Z,46.45
2022-11-06T22:41:25.097Z,47.00
2022-11-06T22:43:53.218Z,44.08
2022-11-06T22:46:23.503Z,47.40
2022-11-06T22:48:52.122Z,43.50
2022-11-06T22:51:22.172Z,47.97
2022-11-06T22:53:50.468Z,41.53
2022-11-06T22:56:17.754Z,44.85
2022-11-06T22:58:44.949Z,43.88
2022-11-06T23:01:11.995Z,39.35
2022-11-06T23:03:39.723Z,39.10
2022-11-06T23:06:09.375Z,45.60
2022-11-06T23:08:40.628Z,44.05
2022-11-06T23:11:14.905Z,51.00
2022-11-06T23:13:41.788Z,43.33
2022-11-06T23:16:12.301Z,42.95
2022-11-06T23:18:39.648Z,49.13
2022-11-06T23:21:14.452Z,47.20
2022-11-06T23:23:42.523Z,50.15
2022-11-06T23:26:17.019Z,40.65
2022-11-06T23:28:45.279Z,48.45
2022-11-06T23:31:12.982Z,47.40
2022-11-06T23:33:40.319Z,46.58
2022-11-06T23:36:08.300Z,48.15
2022-11-06T23:38:35.310Z,44.10
2022-11-06T23:41:27.079Z,46.05
2022-11-06T23:43:54.448Z,49.67
2022-11-06T23:46:23.908Z,46.60
2022-11-06T23:48:50.675Z,48.15
2022-11-06T23:51:17.488Z,47.90
2022-11-06T23:53:44.928Z,51.75
2022-11-06T23:56:12.860Z,55.67
2022-11-06T23:58:40.650Z,48.78
